createdAt,value
2019-03-29T00:01:05.492Z,31.03
2019-03-29T00:03:36.296Z,31.20
2019-03-29T00:06:07.133Z,31.00
2019-03-29T00:08:37.544Z,30.70
2019-03-29T00:11:08.043Z,31.63
2019-03-29T00:13:38.497Z,29.97
2019-03-29T00:16:08.941Z,29.97
2019-03-29T00:18:39.460Z,30.33
2019-03-29T00:21:09.945Z,30.83
2019-03-29T00:23:42.492Z,30.00
2019-03-29T00:26:13.018Z,29.33
2019-03-29T00:28:43.583Z,30.27
2019-03-29T00:31:14.191Z,31.73
2019-03-29T00:33:44.565Z,29.43
2019-03-29T00:36:15.194Z,29.63
2019-03-29T00:38:45.920Z,31.63
2019-03-29T00:41:16.681Z,28.93
2019-03-29T00:43:47.296Z,29.20
2019-03-29T00:46:18.191Z,29.50
2019-03-29T00:48:48.744Z,29.43
2019-03-29T00:51:19.515Z,28.90
2019-03-29T00:53:51.232Z,30.07
2019-03-29T00:56:21.707Z,27.43
2019-03-29T00:58:53.747Z,29.17
2019-03-29T01:01:26.051Z,29.07
2019-03-29T01:03:57.796Z,28.20
2019-03-29T01:06:29.960Z,28.03
2019-03-29T01:09:00.811Z,29.87
2019-03-29T01:11:33.509Z,28.17
2019-03-29T01:14:04.333Z,28.90
2019-03-29T01:16:36.052Z,28.67
2019-03-29T01:19:06.773Z,27.10
2019-03-29T01:21:37.755Z,27.73
2019-03-29T01:24:08.198Z,28.10
2019-03-29T01:26:38.703Z,27.47
2019-03-29T01:29:09.179Z,28.40
2019-03-29T01:31:40.228Z,26.27
2019-03-29T01:34:11.475Z,25.50
2019-03-29T01:36:41.810Z,27.83
2019-03-29T01:39:12.612Z,25.90
2019-03-29T01:41:43.526Z,25.00
2019-03-29T01:44:15.387Z,24.43
2019-03-29T01:46:45.925Z,21.90
2019-03-29T01:49:16.450Z,23.37
2019-03-29T01:51:46.967Z,22.17
2019-03-29T01:54:17.804Z,22.47
2019-03-29T01:56:48.243Z,23.57
2019-03-29T01:59:18.766Z,23.17
2019-03-29T02:01:49.228Z,22.23
2019-03-29T02:04:20.318Z,22.27
2019-03-29T02:06:51.202Z,22.87
2019-03-29T02:09:22.696Z,22.27
2019-03-29T02:11:53.430Z,22.50
2019-03-29T02:14:23.894Z,23.50
2019-03-29T02:16:55.844Z,21.90
2019-03-29T02:19:26.624Z,20.80
2019-03-29T02:21:57.318Z,22.53
2019-03-29T02:24:27.891Z,22.37
2019-03-29T02:26:58.285Z,22.30
2019-03-29T02:29:29.099Z,22.47
2019-03-29T02:32:00.626Z,22.10
2019-03-29T02:34:31.150Z,23.13
2019-03-29T02:37:02.305Z,22.37
2019-03-29T02:39:33.083Z,23.03
2019-03-29T02:42:03.594Z,23.30
2019-03-29T02:44:35.021Z,24.53
2019-03-29T02:47:06.877Z,24.50
2019-03-29T02:49:37.474Z,25.73
2019-03-29T02:52:07.935Z,25.57
2019-03-29T02:54:38.530Z,24.87
2019-03-29T02:57:09.344Z,26.07
2019-03-29T02:59:39.874Z,25.53
2019-03-29T03:02:10.374Z,24.00
2019-03-29T03:04:40.866Z,25.07
2019-03-29T03:07:11.401Z,23.50
2019-03-29T03:09:42.343Z,23.53
2019-03-29T03:12:12.941Z,21.23
2019-03-29T03:14:43.459Z,22.07
2019-03-29T03:17:13.961Z,22.50
2019-03-29T03:19:44.681Z,22.30
2019-03-29T03:22:15.108Z,22.83
2019-03-29T03:24:45.658Z,22.87
2019-03-29T03:27:16.170Z,22.07
2019-03-29T03:29:48.488Z,21.60
2019-03-29T03:32:19.084Z,21.40
2019-03-29T03:34:50.001Z,22.53
2019-03-29T03:37:20.636Z,22.13
2019-03-29T03:39:51.176Z,21.97
2019-03-29T03:42:22.423Z,20.13
2019-03-29T03:44:54.018Z,21.57
2019-03-29T03:47:24.475Z,22.27
2019-03-29T03:49:55.063Z,21.43
2019-03-29T03:52:25.733Z,21.87
2019-03-29T03:54:56.706Z,21.47
2019-03-29T03:57:27.761Z,22.83
2019-03-29T04:00:00.031Z,21.13
2019-03-29T04:02:30.577Z,21.77
2019-03-29T04:05:00.989Z,22.30
2019-03-29T04:07:31.551Z,22.47
2019-03-29T04:10:02.115Z,22.27
2019-03-29T04:12:32.789Z,20.90
2019-03-29T04:15:03.325Z,21.67
2019-03-29T04:17:33.942Z,22.73
2019-03-29T04:20:04.766Z,21.07
2019-03-29T04:22:35.367Z,21.10
2019-03-29T04:25:06.580Z,21.60
2019-03-29T04:27:37.432Z,20.07
2019-03-29T04:30:08.144Z,20.83
2019-03-29T04:32:39.469Z,21.30
2019-03-29T04:35:10.172Z,22.23
2019-03-29T04:37:40.615Z,21.80
2019-03-29T04:40:11.473Z,19.27
2019-03-29T04:42:41.869Z,20.87
2019-03-29T04:45:12.442Z,20.47
2019-03-29T04:47:42.918Z,21.47
2019-03-29T04:50:14.197Z,20.33
2019-03-29T04:52:44.706Z,20.73
2019-03-29T04:55:15.368Z,22.07
2019-03-29T04:57:45.955Z,21.60
2019-03-29T05:00:17.701Z,21.67
2019-03-29T05:02:48.700Z,21.17
2019-03-29T05:05:19.628Z,21.83
2019-03-29T05:07:50.418Z,19.13
2019-03-29T05:10:22.022Z,19.90
2019-03-29T05:12:52.649Z,19.03
2019-03-29T05:15:23.215Z,19.80
2019-03-29T05:17:54.441Z,19.07
2019-03-29T05:20:25.368Z,18.87
2019-03-29T05:22:56.475Z,19.23
2019-03-29T05:25:27.086Z,18.90
2019-03-29T05:27:57.860Z,17.67
2019-03-29T05:30:28.573Z,18.50
2019-03-29T05:32:59.090Z,18.73
2019-03-29T05:35:29.630Z,18.40
2019-03-29T05:38:00.443Z,19.17
2019-03-29T05:40:35.078Z,17.90
2019-03-29T05:43:03.593Z,17.03
2019-03-29T05:45:34.100Z,17.53
2019-03-29T05:48:04.617Z,17.87
2019-03-29T05:50:36.820Z,17.10
2019-03-29T05:53:07.576Z,16.90
2019-03-29T05:55:38.109Z,17.47
2019-03-29T05:58:08.844Z,17.27
2019-03-29T06:00:39.645Z,15.97
2019-03-29T06:03:10.450Z,17.90
2019-03-29T06:05:41.689Z,17.50
2019-03-29T06:08:12.156Z,15.43
2019-03-29T06:10:48.799Z,16.43
2019-03-29T06:13:15.166Z,16.57
2019-03-29T06:15:45.669Z,15.27
2019-03-29T06:18:16.623Z,15.03
2019-03-29T06:20:48.037Z,16.27
2019-03-29T06:23:18.801Z,15.50
2019-03-29T06:25:49.812Z,15.87
2019-03-29T06:28:20.650Z,16.80
2019-03-29T06:30:51.186Z,15.80
2019-03-29T06:33:21.591Z,15.40
2019-03-29T06:35:54.083Z,15.93
2019-03-29T06:38:26.460Z,16.30
2019-03-29T06:41:02.931Z,16.37
2019-03-29T06:43:29.183Z,15.13
2019-03-29T06:45:59.926Z,14.77
2019-03-29T06:48:30.425Z,16.30
2019-03-29T06:51:01.241Z,16.03
2019-03-29T06:53:31.636Z,16.60
2019-03-29T06:56:02.134Z,16.40
2019-03-29T06:58:32.940Z,15.30
2019-03-29T07:01:03.401Z,16.13
2019-03-29T07:03:33.878Z,15.33
2019-03-29T07:06:04.401Z,15.27
2019-03-29T07:08:35.284Z,15.43
2019-03-29T07:11:16.511Z,14.07
2019-03-29T07:13:38.217Z,13.37
2019-03-29T07:16:08.761Z,13.67
2019-03-29T07:18:39.271Z,13.00
2019-03-29T07:21:20.879Z,14.13
2019-03-29T07:23:42.913Z,14.23
2019-03-29T07:26:13.428Z,16.70
2019-03-29T07:28:44.099Z,16.97
2019-03-29T07:31:14.622Z,17.30
2019-03-29T07:33:45.114Z,19.60
2019-03-29T07:36:15.741Z,19.57
2019-03-29T07:38:46.250Z,17.77
2019-03-29T07:41:30.745Z,16.87
2019-03-29T07:43:48.916Z,16.40
2019-03-29T07:46:19.584Z,15.93
2019-03-29T07:48:50.743Z,15.93
2019-03-29T07:51:21.264Z,15.07
2019-03-29T07:53:51.688Z,15.40
2019-03-29T07:56:22.202Z,15.50
2019-03-29T07:58:52.629Z,14.67
2019-03-29T08:01:23.151Z,14.90
2019-03-29T08:03:53.601Z,15.70
2019-03-29T08:06:24.552Z,14.37
2019-03-29T08:08:55.063Z,14.17
2019-03-29T08:11:27.643Z,13.17
2019-03-29T08:13:58.930Z,13.50
2019-03-29T08:16:29.522Z,13.73
2019-03-29T08:19:00.312Z,12.73
2019-03-29T08:21:31.080Z,10.67
2019-03-29T08:24:01.578Z,13.20
2019-03-29T08:26:32.548Z,12.97
2019-03-29T08:29:03.231Z,12.27
2019-03-29T08:31:33.736Z,11.77
2019-03-29T08:34:04.569Z,13.43
2019-03-29T08:36:35.389Z,12.83
2019-03-29T08:39:10.110Z,12.30
2019-03-29T08:41:39.280Z,13.07
2019-03-29T08:44:11.853Z,12.77
2019-03-29T08:46:43.393Z,11.40
2019-03-29T08:49:16.841Z,11.33
2019-03-29T08:51:47.009Z,11.13
2019-03-29T08:54:17.492Z,11.43
2019-03-29T08:56:47.978Z,11.80
2019-03-29T08:59:18.434Z,13.77
2019-03-29T09:01:50.119Z,12.27
2019-03-29T09:04:21.827Z,12.87
2019-03-29T09:06:54.143Z,12.77
2019-03-29T09:09:24.842Z,13.47
2019-03-29T09:11:55.407Z,12.37
2019-03-29T09:14:26.191Z,11.97
2019-03-29T09:16:56.636Z,12.93
2019-03-29T09:19:28.721Z,13.30
2019-03-29T09:21:59.243Z,14.80
2019-03-29T09:24:29.648Z,13.77
2019-03-29T09:27:00.501Z,14.53
2019-03-29T09:29:31.019Z,15.17
2019-03-29T09:32:01.835Z,14.67
2019-03-29T09:34:33.344Z,13.20
2019-03-29T09:37:03.943Z,13.53
2019-03-29T09:39:34.461Z,12.20
2019-03-29T09:42:04.974Z,12.53
2019-03-29T09:44:35.800Z,13.30
2019-03-29T09:47:06.627Z,12.43
2019-03-29T09:49:37.108Z,12.60
2019-03-29T09:52:08.105Z,12.43
2019-03-29T09:54:39.361Z,12.77
2019-03-29T09:57:14.893Z,11.17
2019-03-29T09:59:42.220Z,12.23
2019-03-29T10:02:12.754Z,11.43
2019-03-29T10:04:43.265Z,11.27
2019-03-29T10:07:13.741Z,10.67
2019-03-29T10:09:44.340Z,11.00
2019-03-29T10:12:14.923Z,10.70
2019-03-29T10:14:45.846Z,11.00
2019-03-29T10:17:16.390Z,10.47
2019-03-29T10:19:49.692Z,10.90
2019-03-29T10:22:19.464Z,8.60
2019-03-29T10:24:49.817Z,10.23
2019-03-29T10:27:20.807Z,9.07
2019-03-29T10:29:51.560Z,9.33
2019-03-29T10:32:22.156Z,8.83
2019-03-29T10:34:52.642Z,9.03
2019-03-29T10:37:23.326Z,9.03
2019-03-29T10:39:54.210Z,9.10
2019-03-29T10:42:24.926Z,9.37
2019-03-29T10:44:56.004Z,7.43
2019-03-29T10:47:42.359Z,7.50
2019-03-29T10:49:59.477Z,6.97
2019-03-29T10:52:30.268Z,6.90
2019-03-29T10:55:02.062Z,6.50
2019-03-29T10:57:32.548Z,7.20
2019-03-29T11:00:03.417Z,6.93
2019-03-29T11:02:34.550Z,7.13
2019-03-29T11:05:05.343Z,7.07
2019-03-29T11:07:36.462Z,7.23
2019-03-29T11:10:07.078Z,6.97
2019-03-29T11:12:37.623Z,6.70
2019-03-29T11:15:08.454Z,7.27
2019-03-29T11:17:38.985Z,7.10
2019-03-29T11:20:09.522Z,6.67
2019-03-29T11:22:39.985Z,7.27
2019-03-29T11:25:10.563Z,7.17
2019-03-29T11:27:41.068Z,6.03
2019-03-29T11:30:11.651Z,7.00
2019-03-29T11:32:42.063Z,7.00
2019-03-29T11:35:12.548Z,6.03
2019-03-29T11:37:43.079Z,5.93
2019-03-29T11:40:13.853Z,6.37
2019-03-29T11:42:44.795Z,5.70
2019-03-29T11:45:15.354Z,5.73
2019-03-29T11:47:46.248Z,5.53
2019-03-29T11:50:17.115Z,5.80
2019-03-29T11:52:48.919Z,4.77
2019-03-29T11:55:19.516Z,4.10
2019-03-29T11:57:50.035Z,4.80
2019-03-29T12:00:33.998Z,3.40
2019-03-29T12:03:09.374Z,3.00
2019-03-29T12:05:40.624Z,2.77
2019-03-29T12:08:11.116Z,3.40
2019-03-29T12:10:42.009Z,3.20
2019-03-29T12:13:13.048Z,3.23
2019-03-29T12:15:43.666Z,3.07
2019-03-29T12:18:14.674Z,3.10
2019-03-29T12:20:46.396Z,3.10
2019-03-29T12:23:17.291Z,2.87
2019-03-29T12:25:47.844Z,2.57
2019-03-29T12:28:18.425Z,3.03
2019-03-29T12:30:48.912Z,2.80
2019-03-29T12:33:19.828Z,3.07
2019-03-29T12:35:50.291Z,2.70
2019-03-29T12:38:21.019Z,2.83
2019-03-29T12:40:51.926Z,3.03
2019-03-29T12:43:22.480Z,3.10
2019-03-29T12:45:53.095Z,5.77
2019-03-29T12:48:25.698Z,3.93
2019-03-29T12:50:57.822Z,3.40
2019-03-29T12:53:28.319Z,3.27
2019-03-29T12:55:58.987Z,3.60
2019-03-29T12:58:30.299Z,3.60
2019-03-29T13:01:01.269Z,3.63
2019-03-29T13:03:32.021Z,2.97
2019-03-29T13:06:02.578Z,2.80
2019-03-29T13:08:33.044Z,2.87
2019-03-29T13:11:05.010Z,3.20
2019-03-29T13:13:35.642Z,2.23
2019-03-29T13:16:06.338Z,3.00
2019-03-29T13:18:38.019Z,3.00
2019-03-29T13:21:08.879Z,2.73
2019-03-29T13:23:41.271Z,2.70
2019-03-29T13:26:11.694Z,2.77
2019-03-29T13:28:42.232Z,3.40
2019-03-29T13:31:14.247Z,2.67
2019-03-29T13:33:44.887Z,2.70
2019-03-29T13:36:15.480Z,2.90
2019-03-29T13:38:47.703Z,2.50
2019-03-29T13:41:18.151Z,2.20
2019-03-29T13:43:49.093Z,2.53
2019-03-29T13:46:19.638Z,2.63
2019-03-29T13:48:50.155Z,3.50
2019-03-29T13:51:20.865Z,2.50
2019-03-29T13:53:51.336Z,2.33
2019-03-29T13:56:22.485Z,2.60
2019-03-29T13:58:52.933Z,2.27
2019-03-29T14:01:23.808Z,3.20
2019-03-29T14:03:54.248Z,2.57
2019-03-29T14:06:24.830Z,2.13
2019-03-29T14:08:55.446Z,2.97
2019-03-29T14:11:26.432Z,2.60
2019-03-29T14:13:57.046Z,2.90
2019-03-29T14:16:27.565Z,2.93
2019-03-29T14:18:58.065Z,2.73
2019-03-29T14:21:28.603Z,2.87
2019-03-29T14:23:59.086Z,3.13
2019-03-29T14:26:29.824Z,3.17
2019-03-29T14:29:00.697Z,2.60
2019-03-29T14:31:31.101Z,3.17
2019-03-29T14:34:01.971Z,2.80
2019-03-29T14:36:32.444Z,2.80
2019-03-29T14:39:02.950Z,3.03
2019-03-29T14:41:34.221Z,2.80
2019-03-29T14:44:04.646Z,2.80
2019-03-29T14:46:35.387Z,3.07
2019-03-29T14:49:05.890Z,3.13
2019-03-29T14:51:36.760Z,3.10
2019-03-29T14:54:07.228Z,3.10
2019-03-29T14:56:38.018Z,2.60
2019-03-29T14:59:08.635Z,2.73
2019-03-29T15:01:39.027Z,3.10
2019-03-29T15:04:09.424Z,2.70
2019-03-29T15:06:40.169Z,2.37
2019-03-29T15:09:10.682Z,2.43
2019-03-29T15:11:41.126Z,2.57
2019-03-29T15:14:11.603Z,2.40
2019-03-29T15:16:42.332Z,2.40
2019-03-29T15:19:12.734Z,2.20
2019-03-29T15:21:43.222Z,2.50
2019-03-29T15:24:13.738Z,3.63
2019-03-29T15:26:44.226Z,2.73
2019-03-29T15:29:14.563Z,2.50
2019-03-29T15:31:45.035Z,2.30
2019-03-29T15:34:15.435Z,2.30
2019-03-29T15:36:45.948Z,2.17
2019-03-29T15:39:16.588Z,2.43
2019-03-29T15:41:47.123Z,2.67
2019-03-29T15:44:18.700Z,2.53
2019-03-29T15:46:49.205Z,2.83
2019-03-29T15:49:19.697Z,2.30
2019-03-29T15:51:50.104Z,2.40
2019-03-29T15:54:20.579Z,2.07
2019-03-29T15:56:50.967Z,2.40
2019-03-29T15:59:21.340Z,3.70
2019-03-29T16:01:51.849Z,2.20
2019-03-29T16:04:22.240Z,1.97
2019-03-29T16:06:52.712Z,2.17
2019-03-29T16:09:23.112Z,2.67
2019-03-29T16:11:53.782Z,2.60
2019-03-29T16:14:24.178Z,2.30
2019-03-29T16:16:54.642Z,2.40
2019-03-29T16:19:25.111Z,1.70
2019-03-29T16:21:55.420Z,1.80
2019-03-29T16:24:27.232Z,1.90
2019-03-29T16:26:57.963Z,1.60
2019-03-29T16:29:28.301Z,1.70
2019-03-29T16:31:58.677Z,1.70
2019-03-29T16:34:29.157Z,2.03
2019-03-29T16:36:59.544Z,1.90
2019-03-29T16:39:30.327Z,2.03
2019-03-29T16:42:00.734Z,1.70
2019-03-29T16:44:31.484Z,1.60
2019-03-29T16:47:01.978Z,1.80
2019-03-29T16:49:33.134Z,1.57
2019-03-29T16:52:03.867Z,1.77
2019-03-29T16:54:34.897Z,2.17
2019-03-29T16:57:05.843Z,1.80
2019-03-29T16:59:36.226Z,2.03
2019-03-29T17:02:06.883Z,2.00
2019-03-29T17:04:37.756Z,2.10
2019-03-29T17:07:08.318Z,2.20
2019-03-29T17:09:39.132Z,3.00
2019-03-29T17:12:09.841Z,2.80
2019-03-29T17:14:40.506Z,2.60
2019-03-29T17:17:10.814Z,1.77
2019-03-29T17:19:41.430Z,1.73
2019-03-29T17:22:12.160Z,2.20
2019-03-29T17:24:56.366Z,3.60
2019-03-29T17:27:15.312Z,3.20
2019-03-29T17:29:46.105Z,2.53
2019-03-29T17:32:16.921Z,2.90
2019-03-29T17:34:47.713Z,2.70
2019-03-29T17:37:18.226Z,2.53
2019-03-29T17:39:49.096Z,2.60
2019-03-29T17:42:19.468Z,2.87
2019-03-29T17:44:49.866Z,2.70
2019-03-29T17:47:20.236Z,2.50
2019-03-29T17:49:50.840Z,2.50
2019-03-29T17:52:21.166Z,2.50
2019-03-29T17:54:51.659Z,2.63
2019-03-29T17:57:22.045Z,3.03
2019-03-29T17:59:52.455Z,2.33
2019-03-29T18:02:23.006Z,2.47
2019-03-29T18:04:54.015Z,3.20
2019-03-29T18:07:24.598Z,3.10
2019-03-29T18:09:55.074Z,3.00
2019-03-29T18:12:25.467Z,2.87
2019-03-29T18:14:55.804Z,2.50
2019-03-29T18:17:26.456Z,2.50
2019-03-29T18:19:57.083Z,2.90
2019-03-29T18:22:28.437Z,2.90
2019-03-29T18:24:58.906Z,3.17
2019-03-29T18:27:30.548Z,3.40
2019-03-29T18:30:01.348Z,3.93
2019-03-29T18:32:33.012Z,3.57
2019-03-29T18:35:03.492Z,3.20
2019-03-29T18:37:34.896Z,3.57
2019-03-29T18:40:05.998Z,3.83
2019-03-29T18:42:36.454Z,4.43
2019-03-29T18:45:07.509Z,4.43
2019-03-29T18:47:37.939Z,4.20
2019-03-29T18:50:08.596Z,5.00
2019-03-29T18:52:38.966Z,4.60
2019-03-29T18:55:09.444Z,4.27
2019-03-29T18:57:39.842Z,4.33
2019-03-29T19:00:10.648Z,4.03
2019-03-29T19:02:41.113Z,3.27
2019-03-29T19:05:18.708Z,3.30
2019-03-29T19:07:49.100Z,4.10
2019-03-29T19:10:19.582Z,4.20
2019-03-29T19:12:50.375Z,4.23
2019-03-29T19:15:22.190Z,3.97
2019-03-29T19:17:52.863Z,3.93
2019-03-29T19:20:27.907Z,3.83
2019-03-29T19:22:55.524Z,4.47
2019-03-29T19:25:25.993Z,4.40
2019-03-29T19:27:56.633Z,4.33
2019-03-29T19:30:27.198Z,4.13
2019-03-29T19:32:57.589Z,4.30
2019-03-29T19:35:28.415Z,9.23
2019-03-29T19:37:58.790Z,6.30
2019-03-29T19:40:29.189Z,11.60
2019-03-29T19:42:59.647Z,12.93
2019-03-29T19:45:34.037Z,6.97
2019-03-29T19:48:02.803Z,8.40
2019-03-29T19:50:33.295Z,15.57
2019-03-29T19:53:03.926Z,6.63
2019-03-29T19:55:35.042Z,8.47
2019-03-29T19:58:05.873Z,15.07
2019-03-29T20:00:41.234Z,8.47
2019-03-29T20:03:11.676Z,5.07
2019-03-29T20:05:42.146Z,3.97
2019-03-29T20:08:12.865Z,3.90
2019-03-29T20:10:43.248Z,3.30
2019-03-29T20:13:13.723Z,3.50
2019-03-29T20:15:44.185Z,3.50
2019-03-29T20:18:14.969Z,2.87
2019-03-29T20:20:45.429Z,3.20
2019-03-29T20:23:16.143Z,3.23
2019-03-29T20:25:46.872Z,3.03
2019-03-29T20:28:17.755Z,46.80
2019-03-29T20:30:48.246Z,28.00
2019-03-29T20:33:18.641Z,11.00
2019-03-29T20:35:49.502Z,67.90
2019-03-29T20:38:20.130Z,5.40
2019-03-29T20:40:50.549Z,2.97
2019-03-29T20:43:21.291Z,2.97
2019-03-29T20:45:52.038Z,3.30
2019-03-29T20:48:22.503Z,6.27
2019-03-29T20:50:53.006Z,29.07
2019-03-29T20:53:23.688Z,9.47
2019-03-29T20:55:54.294Z,25.73
2019-03-29T20:58:24.755Z,26.70
2019-03-29T21:00:55.295Z,9.10
2019-03-29T21:03:25.844Z,5.93
2019-03-29T21:05:56.688Z,3.87
2019-03-29T21:08:27.079Z,4.90
2019-03-29T21:10:57.602Z,4.40
2019-03-29T21:13:28.282Z,10.97
2019-03-29T21:15:58.730Z,7.30
2019-03-29T21:18:29.198Z,4.17
2019-03-29T21:20:59.943Z,6.73
2019-03-29T21:23:31.296Z,3.87
2019-03-29T21:26:01.788Z,3.90
2019-03-29T21:28:34.893Z,3.80
2019-03-29T21:31:04.339Z,3.87
2019-03-29T21:33:34.810Z,3.70
2019-03-29T21:36:05.413Z,4.00
2019-03-29T21:38:35.821Z,3.77
2019-03-29T21:41:06.593Z,3.77
2019-03-29T21:43:37.357Z,3.83
2019-03-29T21:46:07.822Z,3.47
2019-03-29T21:48:38.124Z,5.50
2019-03-29T21:51:08.502Z,7.77
2019-03-29T21:53:38.894Z,5.80
2019-03-29T21:56:09.844Z,4.00
2019-03-29T21:58:40.336Z,4.00
2019-03-29T22:01:10.902Z,3.50
2019-03-29T22:03:41.360Z,3.57
2019-03-29T22:06:11.833Z,4.20
2019-03-29T22:08:42.209Z,3.77
2019-03-29T22:11:12.623Z,3.73
2019-03-29T22:13:43.496Z,33.47
2019-03-29T22:16:14.350Z,7.93
2019-03-29T22:18:44.811Z,6.67
2019-03-29T22:21:15.282Z,5.27
2019-03-29T22:23:45.659Z,4.03
2019-03-29T22:26:16.051Z,3.70
2019-03-29T22:28:46.422Z,4.37
2019-03-29T22:31:16.952Z,3.77
2019-03-29T22:33:47.611Z,3.80
2019-03-29T22:36:18.113Z,3.90
2019-03-29T22:38:48.792Z,3.97
2019-03-29T22:41:19.185Z,4.23
2019-03-29T22:43:49.692Z,3.87
2019-03-29T22:46:20.104Z,4.13
2019-03-29T22:48:52.933Z,3.97
2019-03-29T22:51:22.812Z,3.90
2019-03-29T22:53:53.587Z,4.40
2019-03-29T22:56:24.743Z,5.13
2019-03-29T22:58:55.213Z,6.90
2019-03-29T23:01:26.509Z,5.73
2019-03-29T23:03:56.967Z,4.40
2019-03-29T23:06:27.400Z,4.07
2019-03-29T23:08:57.782Z,4.33
2019-03-29T23:11:28.433Z,4.20
2019-03-29T23:13:58.901Z,4.43
2019-03-29T23:16:30.449Z,5.77
2019-03-29T23:19:06.899Z,4.97
2019-03-29T23:21:33.513Z,5.67
2019-03-29T23:24:03.998Z,5.17
2019-03-29T23:26:34.393Z,5.77
2019-03-29T23:29:05.201Z,7.07
2019-03-29T23:31:35.839Z,5.63
2019-03-29T23:34:06.288Z,5.20
2019-03-29T23:36:36.824Z,4.63
2019-03-29T23:39:07.565Z,5.30
2019-03-29T23:41:38.259Z,4.50
2019-03-29T23:44:08.741Z,5.10
2019-03-29T23:46:39.413Z,4.90
2019-03-29T23:49:21.081Z,4.77
2019-03-29T23:51:42.531Z,5.40
2019-03-29T23:54:13.266Z,5.43
2019-03-29T23:56:43.728Z,5.20
2019-03-29T23:59:14.169Z,6.03
